Latest Weather Observations for Innisfail Aero

IDQ60801

Issued at 11:02 pm EST Tuesday 21 May 2024 (issued every 10 minutes, with the page automatically refreshed every 10 minutes)

About weather observations | Map of weather stations | Latest weather observations for QLD | Other Formats
Station Details ID: 032197 Name: INNISFAIL AERODROME Lat: -17.56 Lon: 146.01 Height: 11.84 m
Data from the previous 72 hours. | See also: Recent months at Innisfail Aero
Date/Time
EST
Temp
°C
App
Temp
°C
Dew
Point
°C
Rel
Hum
%
Delta-T
°C
Wind Press
QNH
hPa
Press
MSL
hPa
Rain since
9am
mm
Dir  Spd
km/h
Gust
km/h
Spd
kts
Gust
kts
21/11:00pm 16.2 18.1 15.7 97 0.3 CALM 0 0 0 0 1018.3 1018.3 0.0
21/10:30pm 16.4 18.4 15.9 97 0.3 CALM 0 0 0 0 1018.4 1018.4 0.0
21/10:00pm 16.6 17.9 16.1 97 0.3 W 4 7 2 4 1018.4 1018.4 0.0
21/09:30pm 17.0 17.4 16.2 95 0.5 SW 9 11 5 6 1018.5 1018.5 0.0
21/09:00pm 16.9 18.9 16.1 95 0.5 CALM 0 0 0 0 1018.5 1018.5 0.0
21/08:30pm 17.5 19.6 16.2 92 0.8 CALM 0 0 0 0 1018.5 1018.5 0.0
21/08:00pm 17.9 18.6 16.2 90 1.0 WSW 7 11 4 6 1018.2 1018.2 0.0
21/07:30pm 18.7 19.2 16.5 87 1.3 WSW 9 11 5 6 1017.8 1017.8 0.0
21/07:00pm 19.2 19.6 16.2 83 1.8 SSW 9 11 5 6 1017.4 1017.4 0.0
21/06:30pm 19.9 20.0 16.5 81 2.0 SSW 11 13 6 7 1017.2 1017.2 0.0
21/06:00pm 20.6 20.4 16.8 79 2.3 SSW 13 15 7 8 1017.0 1017.0 0.0
21/05:30pm 22.3 22.7 17.2 73 3.1 SSW 11 17 6 9 1016.9 1016.9 0.0
21/05:00pm 22.7 23.1 17.2 71 3.4 S 11 15 6 8 1016.7 1016.7 0.0
21/04:30pm 23.1 21.9 17.1 69 3.7 SSE 19 26 10 14 1016.4 1016.4 0.0
21/04:00pm 23.7 22.9 17.9 70 3.6 SSE 19 24 10 13 1016.3 1016.3 0.0
21/03:30pm 23.6 22.7 17.8 70 3.6 S 19 24 10 13 1016.4 1016.4 0.0
21/03:00pm 23.4 22.2 17.6 70 3.6 SSE 20 26 11 14 1016.3 1016.3 0.0
21/02:30pm 23.3 21.3 17.5 70 3.6 S 24 30 13 16 1016.3 1016.3 0.0
21/02:00pm 23.0 22.0 17.5 71 3.4 S 19 28 10 15 1016.5 1016.5 0.0
21/01:30pm 22.7 21.7 17.6 73 3.2 S 19 26 10 14 1016.7 1016.7 0.0
21/01:00pm 22.6 21.5 17.7 74 3.0 SSE 20 28 11 15 1017.0 1017.0 0.0
21/12:30pm 22.9 21.4 17.8 73 3.2 S 22 30 12 16 1017.1 1017.1 0.0
21/12:00pm 22.8 21.9 18.1 75 2.9 S 20 32 11 17 1017.3 1017.3 0.0
21/11:30am 22.7 21.1 18.3 76 2.8 S 24 35 13 19 1017.5 1017.5 0.0
21/11:00am 23.2 21.5 18.1 73 3.2 S 24 37 13 20 1017.6 1017.6 0.0
21/10:30am 23.0 21.4 18.3 75 2.9 SSE 24 33 13 18 1017.7 1017.7 0.0
21/10:00am 22.8 22.3 19.0 79 2.4 SSE 20 28 11 15 1017.6 1017.6 0.0
21/09:30am 22.4 22.3 18.8 80 2.3 S 17 22 9 12 1017.8 1017.8 0.0
21/09:00am 22.2 22.5 18.8 81 2.1 S 15 22 8 12 1017.8 1017.8 0.6
21/08:30am 21.9 21.7 18.5 81 2.1 S 17 22 9 12 1017.7 1017.7 0.6
21/08:00am 21.2 21.0 18.6 85 1.6 S 17 24 9 13 1017.6 1017.6 0.6
21/07:30am 20.7 20.6 18.8 89 1.2 S 17 22 9 12 1017.3 1017.3 0.6
21/07:00am 20.4 20.8 18.9 91 0.9 SSW 15 20 8 11 1017.0 1017.0 0.6
21/06:30am 20.0 20.6 18.7 92 0.8 S 13 19 7 10 1016.8 1016.8 0.2
21/06:00am 18.7 21.3 18.4 98 0.2 NE 2 7 1 4 1016.4 1016.4 0.0
21/05:30am 17.8 18.2 17.3 97 0.3 N 11 13 6 7 1016.0 1016.0 0.0
21/05:00am 18.4 20.4 17.9 97 0.3 NW 4 9 2 5 1015.6 1015.6 0.0
21/04:30am 18.4 20.0 17.9 97 0.3 NNE 6 11 3 6 1015.8 1015.8 0.0
21/04:00am 18.7 20.3 18.2 97 0.3 N 7 7 4 4 1015.8 1015.8 0.0
21/03:30am 18.5 21.3 17.9 96 0.4 CALM 0 0 0 0 1015.9 1015.9 0.0
21/03:00am 18.3 21.0 17.7 96 0.4 CALM 0 0 0 0 1016.0 1016.0 0.0
21/02:30am 18.6 20.2 17.8 95 0.5 WSW 6 9 3 5 1016.3 1016.3 0.0
21/02:00am 18.8 19.9 18.1 96 0.4 NNW 9 11 5 6 1016.6 1016.6 0.0
21/01:30am 18.5 19.8 17.5 94 0.6 N 7 9 4 5 1016.7 1016.7 0.0
21/01:00am 19.9 21.1 18.2 90 1.1 SW 9 11 5 6 1016.7 1016.7 0.0
21/12:30am 18.9 21.6 17.7 93 0.7 CALM 0 0 0 0 1016.9 1016.9 0.0
21/12:00am 19.3 21.0 18.0 92 0.8 SW 6 7 3 4 1017.2 1017.2 0.0
 
Date/Time
EST
Temp
°C
App
Temp
°C
Dew
Point
°C
Rel
Hum
%
Delta-T
°C
Wind Press
QNH
hPa
Press
MSL
hPa
Rain since
9am
mm
Dir  Spd
km/h
Gust
km/h
Spd
kts
Gust
kts
20/11:30pm 19.5 22.1 18.5 94 0.6 WNW 2 6 1 3 1017.5 1017.5 0.0
20/11:00pm 19.2 21.7 18.2 94 0.6 W 2 7 1 4 1017.7 1017.7 0.0
20/10:30pm 19.1 21.7 17.4 90 1.0 CALM 0 0 0 0 1017.8 1017.8 0.0
20/10:00pm 19.6 19.7 17.4 87 1.3 SSW 13 15 7 8 1017.7 1017.7 0.0
20/09:30pm 20.2 20.3 17.4 84 1.7 SW 13 15 7 8 1017.9 1017.9 0.0
20/09:00pm 20.0 20.8 17.2 84 1.7 SW 9 13 5 7 1018.0 1018.0 0.0
20/08:30pm 20.3 21.1 17.3 83 1.8 SW 9 11 5 6 1018.1 1018.1 0.0
20/08:00pm 21.2 21.1 17.0 77 2.6 SSW 13 19 7 10 1017.8 1017.8 0.0
20/07:30pm 21.1 20.7 17.1 78 2.4 SSW 15 20 8 11 1017.3 1017.3 0.0
20/07:00pm 20.9 21.2 17.1 79 2.3 SSW 11 13 6 7 1016.9 1016.9 0.0
20/06:30pm 21.0 21.4 17.2 79 2.3 SSW 11 13 6 7 1016.7 1016.7 0.0
20/06:00pm 21.4 21.7 17.0 76 2.7 S 11 13 6 7 1016.3 1016.3 0.0
20/05:30pm 21.7 20.7 16.6 73 3.1 S 17 24 9 13 1016.0 1016.0 0.0
20/05:00pm 22.0 20.7 16.7 72 3.2 SSE 19 24 10 13 1015.7 1015.7 0.0
20/04:30pm 22.8 20.8 16.4 67 3.9 SSE 22 28 12 15 1015.4 1015.4 0.0
20/04:00pm 23.1 21.4 16.2 65 4.2 SSE 20 28 11 15 1015.4 1015.4 0.0
20/03:30pm 23.8 21.5 15.8 61 4.8 S 22 28 12 15 1015.2 1015.2 0.0
20/03:00pm 24.1 22.1 15.6 59 5.1 S 20 32 11 17 1015.3 1015.3 0.0
20/02:30pm 23.4 21.3 15.2 60 4.9 S 20 32 11 17 1015.4 1015.4 0.0
20/02:00pm 23.2 20.9 14.7 58 5.0 S 20 30 11 16 1015.7 1015.7 0.0
20/01:30pm 22.7 20.0 14.5 60 4.8 S 22 33 12 18 1015.7 1015.7 0.0
20/01:00pm 23.4 20.4 14.7 58 5.2 S 24 33 13 18 1015.9 1015.9 0.0
20/12:30pm 22.6 20.0 13.9 58 5.1 S 20 28 11 15 1016.5 1016.5 0.0
20/12:00pm 22.5 20.2 14.1 59 4.9 S 19 26 10 14 1016.9 1016.9 0.0
20/11:30am 22.5 20.0 14.1 59 4.9 S 20 30 11 16 1016.9 1016.9 0.0
20/11:00am 22.3 19.9 13.9 59 4.9 S 19 26 10 14 1017.4 1017.4 0.0
20/10:30am 21.9 20.8 14.3 62 4.4 S 13 19 7 10 1017.7 1017.7 0.0
20/10:00am 20.7 21.5 16.3 76 2.6 SSW 7 9 4 5 1017.7 1017.7 0.0
20/09:30am 19.6 21.0 16.4 82 1.9 SW 4 7 2 4 1017.8 1017.8 0.0
20/09:00am 18.1 20.7 17.5 96 0.4 CALM 0 0 0 0 1017.8 1017.8 0.0
20/08:30am 17.6 20.1 17.3 98 0.2 CALM 0 0 0 0 1017.6 1017.6 0.0
20/08:00am 16.7 18.1 16.5 99 0.1 NNE 4 6 2 3 1017.3 1017.3 0.0
20/07:30am 15.9 17.4 15.7 99 0.1 NNE 2 7 1 4 1017.3 1017.3 0.0
20/07:00am 15.3 15.8 15.0 98 0.2 NNE 6 7 3 4 1017.0 1017.0 0.0
20/06:30am 15.5 16.9 15.3 99 0.1 NNE 2 7 1 4 1016.6 1016.6 0.0
20/06:00am 15.3 16.9 15.0 98 0.2 CALM 0 0 0 0 1016.2 1016.2 0.0
20/05:30am 15.3 16.9 15.0 98 0.2 CALM 0 0 0 0 1016.0 1016.0 0.0
20/05:00am 15.3 15.8 15.0 98 0.2 WSW 6 6 3 3 1015.9 1015.9 0.0
20/04:30am 15.4 17.1 15.1 98 0.2 CALM 0 7 0 4 1015.8 1015.8 0.0
20/04:00am 15.7 17.5 15.4 98 0.2 CALM 0 0 0 0 1015.8 1015.8 0.0
20/03:30am 15.7 17.5 15.4 98 0.2 CALM 0 0 0 0 1015.8 1015.8 0.0
20/03:00am 15.8 17.6 15.5 98 0.2 CALM 0 0 0 0 1016.0 1016.0 0.0
20/02:30am 15.8 17.6 15.5 98 0.2 CALM 0 0 0 0 1015.9 1015.9 0.0
20/02:00am 16.0 16.6 15.7 98 0.2 SW 7 9 4 5 1016.2 1016.2 0.0
20/01:30am 16.2 18.2 15.9 98 0.2 CALM 0 0 0 0 1016.4 1016.4 0.0
20/01:00am 15.9 17.7 15.6 98 0.2 CALM 0 0 0 0 1016.5 1016.5 0.0
20/12:30am 15.8 17.6 15.5 98 0.2 CALM 0 0 0 0 1016.6 1016.6 0.0
20/12:00am 16.1 18.0 15.8 98 0.2 CALM 0 0 0 0 1016.6 1016.6 0.0
 
Date/Time
EST
Temp
°C
App
Temp
°C
Dew
Point
°C
Rel
Hum
%
Delta-T
°C
Wind Press
QNH
hPa
Press
MSL
hPa
Rain since
9am
mm
Dir  Spd
km/h
Gust
km/h
Spd
kts
Gust
kts
19/11:30pm 16.1 17.9 15.6 97 0.3 CALM 0 0 0 0 1016.8 1016.8 0.0
19/11:00pm 16.3 17.1 15.8 97 0.3 N 6 6 3 3 1016.9 1016.9 0.0
19/10:30pm 16.4 17.6 15.8 96 0.4 N 4 7 2 4 1016.8 1016.8 0.0
19/10:00pm 16.4 18.2 15.6 95 0.5 CALM 0 0 0 0 1016.6 1016.6 0.0
19/09:30pm 16.9 18.9 16.1 95 0.5 CALM 0 0 0 0 1016.6 1016.6 0.0
19/09:00pm 16.9 18.8 15.8 93 0.6 CALM 0 0 0 0 1016.6 1016.6 0.0
19/08:30pm 17.9 18.6 16.1 89 1.1 WSW 7 9 4 5 1016.3 1016.3 0.0
19/08:00pm 18.2 18.6 16.2 88 1.2 SW 9 11 5 6 1016.0 1016.0 0.0
19/07:30pm 18.1 20.2 16.3 89 1.1 CALM 0 0 0 0 1015.7 1015.7 0.0
19/07:00pm 19.5 20.2 16.2 81 2.0 SSW 7 11 4 6 1015.2 1015.2 0.0
19/06:30pm 19.1 19.4 16.1 83 1.8 S 9 11 5 6 1015.0 1015.0 0.0
19/06:00pm 20.0 20.6 16.8 82 1.9 S 9 9 5 5 1014.6 1014.6 0.0
19/05:30pm 21.8 22.1 17.0 74 2.9 SSE 11 11 6 6 1014.4 1014.4 0.0
19/05:00pm 22.4 22.1 16.4 69 3.6 SSE 13 17 7 9 1014.0 1014.0 0.0
19/04:30pm 23.1 21.9 16.2 65 4.2 SE 17 20 9 11 1013.6 1013.6 0.0
19/04:00pm 23.7 20.8 15.2 59 5.1 SE 24 32 13 17 1013.4 1013.4 0.0
19/03:30pm 24.2 21.5 15.7 59 5.1 SSE 24 32 13 17 1013.3 1013.3 0.0
19/03:00pm 25.0 22.5 17.0 61 5.0 SE 26 32 14 17 1013.3 1013.3 0.0
19/02:30pm 25.7 23.3 17.4 60 5.2 SSE 26 35 14 19 1013.4 1013.4 0.0
19/02:00pm 25.6 22.9 16.7 58 5.5 SE 26 33 14 18 1013.6 1013.6 0.0
19/01:30pm 25.8 22.8 16.9 58 5.5 SSE 28 35 15 19 1013.7 1013.7 0.0
19/01:00pm 25.6 22.4 16.2 56 5.8 SSE 28 37 15 20 1014.2 1014.2 0.0
19/12:30pm 25.3 21.6 17.0 60 5.1 SSE 32 41 17 22 1014.6 1014.6 0.0
19/12:00pm 25.2 21.5 16.9 60 5.1 SSE 32 41 17 22 1015.0 1015.0 0.0
19/11:30am 25.5 21.8 16.9 59 5.3 SSE 32 41 17 22 1015.1 1015.1 0.0
19/11:00am 25.7 22.5 18.1 63 4.8 SSE 32 43 17 23 1015.4 1015.4 0.0
19/10:30am 25.2 22.1 17.4 62 4.9 SSE 30 37 16 20 1015.6 1015.6 0.0
19/10:00am 24.0 22.3 18.9 73 3.2 S 26 37 14 20 1015.5 1015.5 0.0
19/09:30am 24.1 23.6 20.0 78 2.7 S 22 28 12 15 1015.5 1015.5 0.0
19/09:00am 22.2 25.3 20.3 89 1.2 SSE 4 11 2 6 1015.3 1015.3 0.0
19/08:30am 19.7 23.2 19.5 99 0.1 CALM 0 0 0 0 1015.0 1015.0 0.0
19/08:00am 17.4 19.9 17.2 99 0.1 CALM 0 6 0 3 1014.9 1014.9 0.0
19/07:30am 15.9 16.6 15.7 99 0.1 NNW 6 6 3 3 1014.9 1014.9 0.0
19/07:00am 15.6 16.0 15.3 98 0.2 N 7 9 4 5 1014.8 1014.8 0.0
19/06:30am 16.0 16.2 15.8 99 0.1 SW 9 11 5 6 1014.5 1014.5 0.0
19/06:00am 14.7 14.8 14.4 98 0.2 SW 7 7 4 4 1014.1 1014.1 0.0
19/05:30am 14.8 16.3 14.6 99 0.1 CALM 0 0 0 0 1014.1 1014.1 0.0
19/05:00am 15.3 17.0 15.1 99 0.1 CALM 0 0 0 0 1013.7 1013.7 0.0
19/04:30am 15.3 17.0 15.1 99 0.1 CALM 0 0 0 0 1013.6 1013.6 0.0
19/04:17am 15.5 17.2 15.3 99 0.1 CALM 0 0 0 0 1013.5 1013.5 0.0
19/04:00am 15.5 17.2 15.2 98 0.2 CALM 0 0 0 0 1013.4 1013.4 0.0
19/03:47am 15.4 17.1 15.1 98 0.2 CALM 0 0 0 0 1013.4 1013.4 0.0
19/03:39am 15.5 17.2 15.2 98 0.2 CALM 0 0 0 0 1013.4 1013.4 0.0
19/03:30am 15.7 17.5 15.4 98 0.2 CALM 0 0 0 0 1013.4 1013.4 0.0
19/03:20am 15.6 17.3 15.3 98 0.2 CALM 0 0 0 0 1013.4 1013.4 0.0
19/03:00am 15.8 17.6 15.5 98 0.2 CALM 0 0 0 0 1013.5 1013.5 0.0
19/02:30am 15.5 17.2 15.2 98 0.2 CALM 0 0 0 0 1013.6 1013.6 0.0
19/02:00am 15.6 17.3 15.3 98 0.2 CALM 0 0 0 0 1013.7 1013.7 0.0
19/01:30am 16.3 17.8 15.8 97 0.3 SW 2 6 1 3 1013.9 1013.9 0.0
19/01:00am 16.6 18.7 16.3 98 0.2 CALM 0 0 0 0 1014.1 1014.1 0.0
19/12:30am 16.5 18.6 16.2 98 0.2 CALM 0 0 0 0 1014.4 1014.4 0.0
19/12:00am 16.7 18.8 16.2 97 0.3 CALM 0 0 0 0 1014.6 1014.6 0.0
 
Date/Time
EST
Temp
°C
App
Temp
°C
Dew
Point
°C
Rel
Hum
%
Delta-T
°C
Wind Press
QNH
hPa
Press
MSL
hPa
Rain since
9am
mm
Dir  Spd
km/h
Gust
km/h
Spd
kts
Gust
kts
18/11:30pm 16.9 19.1 16.6 98 0.2 CALM 0 0 0 0 1015.0 1015.0 0.0

Other formats

Comma delimited format used in spreadsheet applications
http://www.bom.gov.au/fwo/IDQ60801/IDQ60801.94280.axf

JavaScript Object Notation format (JSON) in row-major order
http://www.bom.gov.au/fwo/IDQ60801/IDQ60801.94280.json

Data quality

Most of these data are generated automatically and are frequently updated. Quality checks on data are not normally performed. It is possible for incorrect values to appear. Refer to information at About Latest Weather Observations and please check the disclaimer before using these data.